createdAt,value
2022-11-18T00:01:32.734Z,206.83
2022-11-18T00:04:03.528Z,181.47
2022-11-18T00:06:32.142Z,150.50
2022-11-18T00:09:01.417Z,141.67
2022-11-18T00:11:48.174Z,240.73
2022-11-18T00:14:19.941Z,280.63
2022-11-18T00:16:51.901Z,289.67
2022-11-18T00:19:24.431Z,270.43
2022-11-18T00:21:53.139Z,235.90
2022-11-18T00:24:22.727Z,222.20
2022-11-18T00:26:51.870Z,328.63
2022-11-18T00:29:21.352Z,373.33
2022-11-18T00:31:50.285Z,363.83
2022-11-18T00:34:20.990Z,362.03
2022-11-18T00:36:50.005Z,231.37
2022-11-18T00:39:21.231Z,302.30
2022-11-18T00:42:08.044Z,256.27
2022-11-18T00:44:36.884Z,234.80
2022-11-18T00:47:05.965Z,183.00
2022-11-18T00:49:35.857Z,137.23
2022-11-18T00:52:05.472Z,265.63
2022-11-18T00:54:33.938Z,337.53
2022-11-18T00:57:04.064Z,334.13
2022-11-18T00:59:32.530Z,349.07
2022-11-18T01:02:00.971Z,148.53
2022-11-18T01:04:29.567Z,255.53
2022-11-18T01:06:59.423Z,200.53
2022-11-18T01:09:28.036Z,50.20
2022-11-18T01:12:14.190Z,110.63
2022-11-18T01:14:42.675Z,174.77
2022-11-18T01:17:11.402Z,336.37
2022-11-18T01:19:39.847Z,276.50
2022-11-18T01:22:09.859Z,254.07
2022-11-18T01:24:38.294Z,161.97
2022-11-18T01:27:06.707Z,80.90
2022-11-18T01:29:35.151Z,109.03
2022-11-18T01:34:51.999Z,258.80
2022-11-18T01:37:21.782Z,225.60
2022-11-18T01:39:50.230Z,316.83
2022-11-18T01:42:19.345Z,215.37
2022-11-18T01:45:09.418Z,310.30
2022-11-18T01:47:45.107Z,353.83
2022-11-18T01:50:16.595Z,225.77
2022-11-18T01:52:51.640Z,90.33
2022-11-18T01:55:26.971Z,168.50
2022-11-18T01:58:04.697Z,121.83
2022-11-18T02:00:33.210Z,138.87
2022-11-18T02:03:04.656Z,115.47
2022-11-18T02:05:36.050Z,251.97
2022-11-18T02:08:09.007Z,246.10
2022-11-18T02:10:37.873Z,198.27
2022-11-18T02:13:07.673Z,389.57
2022-11-18T02:15:51.405Z,183.77
2022-11-18T02:18:34.421Z,313.77
2022-11-18T02:21:22.487Z,341.93
2022-11-18T02:24:31.444Z,196.67
2022-11-18T02:27:58.937Z,130.70
2022-11-18T02:30:35.528Z,301.13
2022-11-18T02:33:12.210Z,264.77
2022-11-18T02:35:45.249Z,285.77
2022-11-18T02:38:20.962Z,184.83
2022-11-18T02:40:56.437Z,312.93
2022-11-18T02:43:34.292Z,200.73
2022-11-18T02:46:10.393Z,91.33
2022-11-18T02:48:46.160Z,305.63
2022-11-18T02:51:19.963Z,244.07
2022-11-18T02:53:50.989Z,237.47
2022-11-18T02:56:22.417Z,211.47
2022-11-18T02:58:51.094Z,113.33
2022-11-18T03:01:27.233Z,258.93
2022-11-18T03:03:56.233Z,228.03
2022-11-18T03:06:33.656Z,167.53
2022-11-18T03:09:15.836Z,79.23
2022-11-18T03:11:57.298Z,226.30
2022-11-18T03:14:39.325Z,176.63
2022-11-18T03:17:15.618Z,150.70
2022-11-18T03:20:08.601Z,154.67
2022-11-18T03:22:45.669Z,114.87
2022-11-18T03:25:30.878Z,169.23
2022-11-18T03:28:10.415Z,231.17
2022-11-18T03:30:46.101Z,56.67
2022-11-18T03:33:25.302Z,177.05
2022-11-18T03:35:56.896Z,370.93
2022-11-18T03:38:33.396Z,444.83
2022-11-18T03:41:09.992Z,338.83
2022-11-18T03:43:46.461Z,194.17
2022-11-18T03:46:22.626Z,98.47
2022-11-18T03:48:57.714Z,240.40
2022-11-18T03:51:33.667Z,331.13
2022-11-18T03:54:09.380Z,234.20
2022-11-18T03:56:45.038Z,167.18
2022-11-18T03:59:19.759Z,71.03
2022-11-18T04:01:55.752Z,46.55
2022-11-18T04:04:28.036Z,47.20
2022-11-18T04:07:05.454Z,32.97
2022-11-18T04:09:41.240Z,34.33
2022-11-18T04:12:16.060Z,52.00
2022-11-18T04:14:48.939Z,70.43
2022-11-18T04:17:22.050Z,41.83
2022-11-18T04:19:51.900Z,48.58
2022-11-18T04:22:20.394Z,40.78
2022-11-18T04:24:48.923Z,40.13
2022-11-18T04:27:17.348Z,43.23
2022-11-18T04:29:45.940Z,35.40
2022-11-18T04:32:14.345Z,36.80
2022-11-18T04:34:42.750Z,36.53
2022-11-18T04:37:12.464Z,38.10
2022-11-18T04:39:40.924Z,37.53
2022-11-18T04:42:09.533Z,51.00
2022-11-18T04:44:37.941Z,37.63
2022-11-18T04:47:07.813Z,33.83
2022-11-18T04:49:37.075Z,34.20
2022-11-18T04:52:06.614Z,33.90
2022-11-18T04:54:36.830Z,35.70
2022-11-18T04:57:05.380Z,39.42
2022-11-18T04:59:33.959Z,40.13
2022-11-18T05:02:02.722Z,43.92
2022-11-18T05:04:34.675Z,44.93
2022-11-18T05:07:06.051Z,53.08
2022-11-18T05:09:36.036Z,44.17
2022-11-18T05:12:22.742Z,38.28
2022-11-18T05:14:51.351Z,45.70
2022-11-18T05:17:20.406Z,46.70
2022-11-18T05:19:48.825Z,43.88
2022-11-18T05:22:17.381Z,49.97
2022-11-18T05:24:48.187Z,30.95
2022-11-18T05:27:17.364Z,46.27
2022-11-18T05:29:45.840Z,47.17
2022-11-18T05:32:14.322Z,55.22
2022-11-18T05:34:43.590Z,59.25
2022-11-18T05:37:12.547Z,62.70
2022-11-18T05:39:41.027Z,79.20
2022-11-18T05:42:29.504Z,73.27
2022-11-18T05:44:58.887Z,85.22
2022-11-18T05:47:27.883Z,84.95
2022-11-18T05:49:56.328Z,89.47
2022-11-18T05:52:24.719Z,79.32
2022-11-18T05:54:53.233Z,173.25
2022-11-18T05:57:22.968Z,117.70
2022-11-18T05:59:51.378Z,84.75
2022-11-18T06:02:24.925Z,110.43
2022-11-18T06:05:00.523Z,99.35
2022-11-18T06:07:36.770Z,130.80
2022-11-18T06:10:07.454Z,108.15
2022-11-18T06:12:45.380Z,157.50
2022-11-18T06:15:22.011Z,185.52
2022-11-18T06:17:57.120Z,101.97
2022-11-18T06:20:25.806Z,90.10
2022-11-18T06:22:58.984Z,78.00
2022-11-18T06:25:27.763Z,136.52
2022-11-18T06:28:01.654Z,123.40
2022-11-18T06:30:30.069Z,71.47
2022-11-18T06:32:58.498Z,83.43
2022-11-18T06:35:26.928Z,141.65
2022-11-18T06:37:55.323Z,218.50
2022-11-18T06:40:23.853Z,183.75
2022-11-18T06:43:09.861Z,228.20
2022-11-18T06:45:39.636Z,149.48
2022-11-18T06:48:08.240Z,198.90
2022-11-18T06:50:36.682Z,257.85
2022-11-18T06:53:05.110Z,106.55
2022-11-18T06:55:35.945Z,145.00
2022-11-18T06:58:04.343Z,86.35
2022-11-18T07:00:32.792Z,105.05
2022-11-18T07:03:03.429Z,71.60
2022-11-18T07:05:31.889Z,137.77
2022-11-18T07:08:00.420Z,96.55
2022-11-18T07:10:28.908Z,180.75
2022-11-18T07:12:57.297Z,105.07
2022-11-18T07:15:25.701Z,68.38
2022-11-18T07:17:54.457Z,51.75
2022-11-18T07:20:24.250Z,62.70
2022-11-18T07:22:54.036Z,62.35
2022-11-18T07:25:22.462Z,65.13
2022-11-18T07:27:50.838Z,63.92
2022-11-18T07:30:19.626Z,52.17
2022-11-18T07:32:48.214Z,54.47
2022-11-18T07:35:18.399Z,51.05
2022-11-18T07:37:48.114Z,65.88
2022-11-18T07:40:16.972Z,60.83
2022-11-18T07:42:45.346Z,136.45
2022-11-18T07:45:27.062Z,70.10
2022-11-18T07:47:55.470Z,113.53
2022-11-18T07:50:23.890Z,75.30
2022-11-18T07:52:57.213Z,98.35
2022-11-18T07:55:29.413Z,150.45
2022-11-18T07:58:00.342Z,256.98
2022-11-18T08:00:28.857Z,198.43
2022-11-18T08:02:57.216Z,158.90
2022-11-18T08:05:25.632Z,189.25
2022-11-18T08:07:55.389Z,234.32
2022-11-18T08:10:24.800Z,37.88
2022-11-18T08:12:53.274Z,54.25
2022-11-18T08:15:21.671Z,50.15
2022-11-18T08:17:50.103Z,54.28
2022-11-18T08:20:18.863Z,147.20
2022-11-18T08:22:47.472Z,101.45
2022-11-18T08:25:17.637Z,83.20
2022-11-18T08:27:46.093Z,76.18
2022-11-18T08:30:15.228Z,100.35
2022-11-18T08:32:43.644Z,131.65
2022-11-18T08:35:12.201Z,131.55
2022-11-18T08:37:41.612Z,171.13
2022-11-18T08:40:11.314Z,87.28
2022-11-18T08:42:41.086Z,309.90
2022-11-18T08:45:10.488Z,248.70
2022-11-18T08:47:39.365Z,202.48
2022-11-18T08:50:11.130Z,223.65
2022-11-18T08:52:39.667Z,157.52
2022-11-18T08:55:08.924Z,171.55
2022-11-18T08:57:37.307Z,223.00
2022-11-18T09:00:09.216Z,151.35
2022-11-18T09:02:37.682Z,96.70
2022-11-18T09:05:07.264Z,128.55
2022-11-18T09:07:35.831Z,219.60
2022-11-18T09:10:04.849Z,96.25
2022-11-18T09:12:33.292Z,94.25
2022-11-18T09:15:17.895Z,86.95
2022-11-18T09:17:47.904Z,67.20
2022-11-18T09:20:17.069Z,106.00
2022-11-18T09:22:45.542Z,143.18
2022-11-18T09:25:14.025Z,95.18
2022-11-18T09:27:42.514Z,99.93
2022-11-18T09:30:11.853Z,212.30
2022-11-18T09:32:40.236Z,219.25
2022-11-18T09:35:10.671Z,191.57
2022-11-18T09:37:39.088Z,102.97
2022-11-18T09:40:15.614Z,80.80
2022-11-18T09:43:01.411Z,199.98
2022-11-18T09:45:39.371Z,72.53
2022-11-18T09:48:18.991Z,135.73
2022-11-18T09:50:50.486Z,141.50
2022-11-18T09:53:22.750Z,87.95
2022-11-18T09:55:53.039Z,64.47
2022-11-18T09:58:32.270Z,106.95
2022-11-18T10:01:01.500Z,72.32
2022-11-18T10:03:33.596Z,61.95
2022-11-18T10:06:23.338Z,61.25
2022-11-18T10:09:09.748Z,61.85
2022-11-18T10:11:51.736Z,57.35
2022-11-18T10:14:41.525Z,61.63
2022-11-18T10:17:32.529Z,45.65
2022-11-18T10:20:22.882Z,52.85
2022-11-18T10:22:59.592Z,47.22
2022-11-18T10:25:28.016Z,47.47
2022-11-18T10:28:00.611Z,52.67
2022-11-18T10:30:29.447Z,49.97
2022-11-18T10:33:01.652Z,47.30
2022-11-18T10:35:34.198Z,49.33
2022-11-18T10:38:17.244Z,45.55
2022-11-18T10:40:59.242Z,41.83
2022-11-18T10:43:51.743Z,43.08
2022-11-18T10:46:27.061Z,41.10
2022-11-18T10:49:17.352Z,36.65
2022-11-18T10:51:48.775Z,37.78
2022-11-18T10:54:22.175Z,42.75
2022-11-18T10:56:58.353Z,33.35
2022-11-18T10:59:33.342Z,35.22
2022-11-18T11:02:16.033Z,29.95
2022-11-18T11:04:47.094Z,29.13
2022-11-18T11:07:27.632Z,38.92
2022-11-18T11:10:23.457Z,39.05
2022-11-18T11:13:04.371Z,29.80
2022-11-18T11:15:40.757Z,28.05
2022-11-18T11:18:36.297Z,28.77
2022-11-18T11:21:05.137Z,31.95
2022-11-18T11:23:35.465Z,27.10
2022-11-18T11:29:15.238Z,27.23
2022-11-18T11:31:58.449Z,31.48
2022-11-18T11:34:37.785Z,31.33
2022-11-18T11:37:25.443Z,30.30
2022-11-18T11:40:21.290Z,38.33
2022-11-18T11:43:09.617Z,28.27
2022-11-18T11:45:56.333Z,35.70
2022-11-18T11:48:45.624Z,38.30
2022-11-18T11:51:26.874Z,33.03
2022-11-18T11:54:39.811Z,40.30
2022-11-18T11:57:24.833Z,38.08
2022-11-18T12:00:05.480Z,36.97
2022-11-18T12:03:13.290Z,32.65
2022-11-18T12:05:43.128Z,34.80
2022-11-18T12:08:20.872Z,38.53
2022-11-18T12:10:58.178Z,35.55
2022-11-18T12:13:42.545Z,35.17
2022-11-18T12:16:26.022Z,31.50
2022-11-18T12:19:01.144Z,33.33
2022-11-18T12:22:05.316Z,37.83
2022-11-18T12:24:38.396Z,33.38
2022-11-18T12:27:14.733Z,34.38
2022-11-18T12:29:56.273Z,40.65
2022-11-18T12:32:42.484Z,29.58
2022-11-18T12:35:28.628Z,28.33
2022-11-18T12:38:03.917Z,26.55
2022-11-18T12:40:42.477Z,23.95
2022-11-18T12:44:03.634Z,30.98
2022-11-18T12:46:53.568Z,31.83
2022-11-18T12:50:16.038Z,29.27
2022-11-18T12:52:53.653Z,32.70
2022-11-18T12:55:34.548Z,25.17
2022-11-18T12:58:02.965Z,31.00
2022-11-18T13:00:52.240Z,41.50
2022-11-18T13:03:28.779Z,41.22
2022-11-18T13:06:17.381Z,34.47
2022-11-18T13:08:52.151Z,34.50
2022-11-18T13:11:38.742Z,38.08
2022-11-18T13:14:36.069Z,33.53
2022-11-18T13:17:41.969Z,32.72
2022-11-18T13:20:22.650Z,31.60
2022-11-18T13:23:12.130Z,36.30
2022-11-18T13:25:42.506Z,32.63
2022-11-18T13:28:30.118Z,33.50
2022-11-18T13:31:08.129Z,32.13
2022-11-18T13:33:39.721Z,32.50
2022-11-18T13:36:19.529Z,35.38
2022-11-18T13:38:58.610Z,31.00
2022-11-18T13:41:32.738Z,36.65
2022-11-18T13:44:20.152Z,32.58
2022-11-18T13:46:54.203Z,36.10
2022-11-18T13:49:34.262Z,40.13
2022-11-18T13:52:03.093Z,36.33
2022-11-18T13:54:32.999Z,39.33
2022-11-18T13:57:01.496Z,42.25
2022-11-18T13:59:30.744Z,36.83
2022-11-18T14:02:01.475Z,32.03
2022-11-18T14:04:33.092Z,39.75
2022-11-18T14:07:27.199Z,44.45
2022-11-18T14:10:00.909Z,45.10
2022-11-18T14:12:32.480Z,49.20
2022-11-18T14:15:16.248Z,40.13
2022-11-18T14:17:57.035Z,50.47
2022-11-18T14:20:27.151Z,39.65
2022-11-18T14:22:59.702Z,56.58
2022-11-18T14:25:35.581Z,53.60
2022-11-18T14:28:19.939Z,55.33
2022-11-18T14:31:04.672Z,57.03
2022-11-18T14:33:34.552Z,65.13
2022-11-18T14:36:11.133Z,62.63
2022-11-18T14:41:48.225Z,62.85
2022-11-18T14:44:18.623Z,62.40
2022-11-18T14:46:53.380Z,59.42
2022-11-18T14:49:24.783Z,76.93
2022-11-18T14:51:55.608Z,75.63
2022-11-18T14:54:28.039Z,68.20
2022-11-18T14:57:03.554Z,67.00
2022-11-18T14:59:32.459Z,61.85
2022-11-18T15:02:01.153Z,69.55
2022-11-18T15:04:29.669Z,77.55
2022-11-18T15:06:58.196Z,73.93
2022-11-18T15:09:26.658Z,73.43
2022-11-18T15:11:55.074Z,78.00
2022-11-18T15:14:25.104Z,74.80
2022-11-18T15:16:53.546Z,56.97
2022-11-18T15:19:21.985Z,69.00
2022-11-18T15:21:50.731Z,68.55
2022-11-18T15:24:19.380Z,81.13
2022-11-18T15:26:51.102Z,75.13
2022-11-18T15:29:22.824Z,69.85
2022-11-18T15:31:53.419Z,74.97
2022-11-18T15:34:22.248Z,79.22
2022-11-18T15:36:51.236Z,71.30
2022-11-18T15:39:19.714Z,68.78
2022-11-18T15:41:48.145Z,69.70
2022-11-18T15:44:17.170Z,75.63
2022-11-18T15:46:47.855Z,66.03
2022-11-18T15:49:18.415Z,73.35
2022-11-18T15:51:46.846Z,73.97
2022-11-18T15:54:15.624Z,68.82
2022-11-18T15:56:44.172Z,62.63
2022-11-18T15:59:14.995Z,81.15
2022-11-18T16:01:46.305Z,66.68
2022-11-18T16:04:19.675Z,69.45
2022-11-18T16:06:49.564Z,59.13
2022-11-18T16:09:18.963Z,80.25
2022-11-18T16:12:05.394Z,75.88
2022-11-18T16:14:37.341Z,36.65
2022-11-18T16:17:05.752Z,74.20
2022-11-18T16:19:35.811Z,75.43
2022-11-18T16:22:04.313Z,81.78
2022-11-18T16:24:32.692Z,79.90
2022-11-18T16:27:04.307Z,74.85
2022-11-18T16:29:32.958Z,69.72
2022-11-18T16:32:01.360Z,78.90
2022-11-18T16:34:29.866Z,66.65
2022-11-18T16:37:01.236Z,80.07
2022-11-18T16:39:30.621Z,72.30
2022-11-18T16:42:08.050Z,71.55
2022-11-18T16:44:38.205Z,84.22
2022-11-18T16:47:14.246Z,74.20
2022-11-18T16:49:44.245Z,85.85
2022-11-18T16:52:14.041Z,65.15
2022-11-18T16:54:45.659Z,73.32
2022-11-18T16:57:15.597Z,69.95
2022-11-18T16:59:44.192Z,73.35
2022-11-18T17:02:14.704Z,73.18
2022-11-18T17:04:43.890Z,77.55
2022-11-18T17:07:14.208Z,76.60
2022-11-18T17:09:42.718Z,70.28
2022-11-18T17:12:11.299Z,68.70
2022-11-18T17:14:40.218Z,68.28
2022-11-18T17:17:09.090Z,79.93
2022-11-18T17:19:37.671Z,71.07
2022-11-18T17:22:07.121Z,73.18
2022-11-18T17:24:37.708Z,67.32
2022-11-18T17:27:06.100Z,77.35
2022-11-18T17:29:34.619Z,68.57
2022-11-18T17:32:03.052Z,78.05
2022-11-18T17:34:31.453Z,72.80
2022-11-18T17:37:06.211Z,75.78
2022-11-18T17:39:36.828Z,69.07
2022-11-18T17:42:22.418Z,70.75
2022-11-18T17:44:51.010Z,73.65
2022-11-18T17:47:19.480Z,80.22
2022-11-18T17:49:47.956Z,74.72
2022-11-18T17:52:16.367Z,74.75
2022-11-18T17:54:46.116Z,83.00
2022-11-18T17:57:14.640Z,80.25
2022-11-18T17:59:43.090Z,69.65
2022-11-18T18:02:13.194Z,71.97
2022-11-18T18:04:41.698Z,69.47
2022-11-18T18:07:10.146Z,69.45
2022-11-18T18:09:38.920Z,79.75
2022-11-18T18:12:23.121Z,70.70
2022-11-18T18:14:51.948Z,59.80
2022-11-18T18:17:20.553Z,69.20
2022-11-18T18:19:48.970Z,62.55
2022-11-18T18:22:17.402Z,70.63
2022-11-18T18:24:45.822Z,74.20
2022-11-18T18:27:15.755Z,62.33
2022-11-18T18:29:44.156Z,64.55
2022-11-18T18:32:12.719Z,71.82
2022-11-18T18:34:41.129Z,77.75
2022-11-18T18:37:09.574Z,61.47
2022-11-18T18:39:37.970Z,71.38
2022-11-18T18:42:06.476Z,71.95
2022-11-18T18:44:54.177Z,61.15
2022-11-18T18:47:22.567Z,63.80
2022-11-18T18:49:50.984Z,59.88
2022-11-18T18:52:19.417Z,59.45
2022-11-18T18:54:47.955Z,66.90
2022-11-18T18:57:16.378Z,61.97
2022-11-18T18:59:46.299Z,67.97
2022-11-18T19:02:14.725Z,56.33
2022-11-18T19:04:44.817Z,62.05
2022-11-18T19:07:13.276Z,53.72
2022-11-18T19:09:41.729Z,56.53
2022-11-18T19:12:28.969Z,59.83
2022-11-18T19:14:58.732Z,62.65
2022-11-18T19:17:27.215Z,63.58
2022-11-18T19:20:13.292Z,49.88
2022-11-18T19:22:41.693Z,53.70
2022-11-18T19:25:10.958Z,58.75
2022-11-18T19:27:40.416Z,55.90
2022-11-18T19:30:12.402Z,50.90
2022-11-18T19:32:43.206Z,58.08
2022-11-18T19:35:12.673Z,54.08
2022-11-18T19:37:41.370Z,57.67
2022-11-18T19:40:11.780Z,49.90
2022-11-18T19:42:41.948Z,48.95
2022-11-18T19:45:12.917Z,54.47
2022-11-18T19:47:41.470Z,50.67
2022-11-18T19:50:10.924Z,49.03
2022-11-18T19:52:39.354Z,45.50
2022-11-18T19:55:08.420Z,46.17
2022-11-18T19:57:36.858Z,52.63
2022-11-18T20:00:06.657Z,50.47
2022-11-18T20:02:40.332Z,48.38
2022-11-18T20:05:47.018Z,50.03
2022-11-18T20:08:15.748Z,49.70
2022-11-18T20:10:44.234Z,36.92
2022-11-18T20:13:12.638Z,45.35
2022-11-18T20:15:41.131Z,39.25
2022-11-18T20:18:11.623Z,40.75
2022-11-18T20:20:40.165Z,41.38
2022-11-18T20:23:08.630Z,34.97
2022-11-18T20:25:37.631Z,37.35
2022-11-18T20:28:06.122Z,32.33
2022-11-18T20:30:34.520Z,40.03
2022-11-18T20:33:02.918Z,34.47
2022-11-18T20:35:32.722Z,34.22
2022-11-18T20:38:01.748Z,33.75
2022-11-18T20:40:32.130Z,29.67
2022-11-18T20:43:12.699Z,33.80
2022-11-18T20:45:43.466Z,31.95
2022-11-18T20:48:14.037Z,30.52
2022-11-18T20:50:44.020Z,29.67
2022-11-18T20:53:12.412Z,30.70
2022-11-18T20:55:41.030Z,32.15
2022-11-18T20:58:09.727Z,30.92
2022-11-18T21:00:38.243Z,27.20
2022-11-18T21:03:07.072Z,27.63
2022-11-18T21:05:36.426Z,27.05
2022-11-18T21:08:06.632Z,23.73
2022-11-18T21:10:35.868Z,26.95
2022-11-18T21:13:21.747Z,26.40
2022-11-18T21:15:50.150Z,22.10
2022-11-18T21:18:18.612Z,23.20
2022-11-18T21:21:04.579Z,23.50
2022-11-18T21:23:34.380Z,25.60
2022-11-18T21:26:02.895Z,26.27
2022-11-18T21:28:31.324Z,24.05
2022-11-18T21:30:59.704Z,24.60
2022-11-18T21:33:28.080Z,24.77
2022-11-18T21:35:59.983Z,23.13
2022-11-18T21:38:29.057Z,19.85
2022-11-18T21:41:04.401Z,25.33
2022-11-18T21:44:03.792Z,19.73
2022-11-18T21:46:23.585Z,20.73
2022-11-18T21:48:55.748Z,19.88
2022-11-18T21:51:28.551Z,21.77
2022-11-18T21:53:57.087Z,23.83
2022-11-18T21:56:30.737Z,19.00
2022-11-18T21:59:02.236Z,20.45
2022-11-18T22:01:33.740Z,21.05
2022-11-18T22:04:05.157Z,18.38
2022-11-18T22:06:35.163Z,17.98
2022-11-18T22:09:05.995Z,20.77
2022-11-18T22:11:35.739Z,19.95
2022-11-18T22:14:06.021Z,18.15
2022-11-18T22:16:34.519Z,21.83
2022-11-18T22:19:08.005Z,15.75
2022-11-18T22:21:36.800Z,21.42
2022-11-18T22:24:05.694Z,19.13
2022-11-18T22:26:35.529Z,16.38
2022-11-18T22:29:03.940Z,18.35
2022-11-18T22:31:33.329Z,21.45
2022-11-18T22:34:01.914Z,20.98
2022-11-18T22:36:30.320Z,18.50
2022-11-18T22:38:59.082Z,17.15
2022-11-18T22:41:47.296Z,16.48
2022-11-18T22:44:17.810Z,15.48
2022-11-18T22:46:47.160Z,18.85
2022-11-18T22:49:15.627Z,17.95
2022-11-18T22:51:44.003Z,21.00
2022-11-18T22:57:01.024Z,22.95
2022-11-18T22:59:30.886Z,24.52
2022-11-18T23:01:59.285Z,16.92
2022-11-18T23:04:27.703Z,23.02
2022-11-18T23:06:56.156Z,19.42
2022-11-18T23:09:24.604Z,22.42
2022-11-18T23:12:10.588Z,19.70
2022-11-18T23:14:40.379Z,17.13
2022-11-18T23:17:08.803Z,17.08
2022-11-18T23:19:41.824Z,20.40
2022-11-18T23:22:10.678Z,20.33
2022-11-18T23:24:39.052Z,18.70
2022-11-18T23:27:07.551Z,19.73
2022-11-18T23:29:36.059Z,21.63
2022-11-18T23:32:06.153Z,17.73
2022-11-18T23:34:34.566Z,15.27
2022-11-18T23:37:02.929Z,18.48
2022-11-18T23:39:31.352Z,17.50
2022-11-18T23:41:59.779Z,19.60
2022-11-18T23:44:46.763Z,20.45
2022-11-18T23:47:16.787Z,18.08
2022-11-18T23:49:45.287Z,19.67
2022-11-18T23:52:14.880Z,22.85
2022-11-18T23:54:43.471Z,17.58
2022-11-18T23:57:11.860Z,16.77
2022-11-18T23:59:40.251Z,19.50
